<?xml version="1.0" encoding="UTF-8" standalone="no" ?>
<gpx xmlns="http://www.topografix.com/GPX/1/1" xmlns:xsi="http://www.w3.org/2001/XMLSchema-instance" xsi:schemaLocation="http://www.topografix.com/GPX/1/1 http://www.topografix.com/GPX/1/1/gpx.xsd" version="1.1" creator="VisuGPX - https://www.visugpx.com">
  <metadata>
    <name>BARCELONNE  : autour de la tour ibp 33</name>
  </metadata>
  <wpt lat="44.86705" lon="5.05349">
    <ele>371</ele>
    <name><![CDATA[Point de passage 1]]></name>
  </wpt>
  <wpt lat="44.86709" lon="5.05357">
    <ele>369</ele>
    <name><![CDATA[Point de passage 2]]></name>
  </wpt>
  <trk>
    <name><![CDATA[RandonnÃ©e du 03/02/2026 Ã  13:12]]></name>
    <extensions>
      <line xmlns="http://www.topografix.com/GPX/gpx_style/0/2">
        <color>0000FF</color>
        <width>4</width>
      </line>
    </extensions>
    <trkseg>
      <trkpt lat="44.86705" lon="5.05349">
        <ele>371</ele>
        <time>2026-02-03T12:12:20.000Z</time>
      </trkpt>
      <trkpt lat="44.86707" lon="5.05346">
        <ele>371</ele>
        <time>2026-02-03T12:12:26.000Z</time>
      </trkpt>
      <trkpt lat="44.8672" lon="5.05323">
        <ele>368</ele>
        <time>2026-02-03T12:14:15.000Z</time>
      </trkpt>
      <trkpt lat="44.8674" lon="5.05307">
        <ele>370</ele>
        <time>2026-02-03T12:14:35.000Z</time>
      </trkpt>
      <trkpt lat="44.86756" lon="5.05283">
        <ele>366</ele>
        <time>2026-02-03T12:14:56.000Z</time>
      </trkpt>
      <trkpt lat="44.86769" lon="5.05256">
        <ele>365</ele>
        <time>2026-02-03T12:15:21.000Z</time>
      </trkpt>
      <trkpt lat="44.8678" lon="5.05228">
        <ele>363</ele>
        <time>2026-02-03T12:15:41.000Z</time>
      </trkpt>
      <trkpt lat="44.86782" lon="5.05196">
        <ele>361</ele>
        <time>2026-02-03T12:16:04.000Z</time>
      </trkpt>
      <trkpt lat="44.86782" lon="5.05163">
        <ele>359</ele>
        <time>2026-02-03T12:16:32.000Z</time>
      </trkpt>
      <trkpt lat="44.86779" lon="5.05132">
        <ele>357</ele>
        <time>2026-02-03T12:16:51.000Z</time>
      </trkpt>
      <trkpt lat="44.86782" lon="5.05106">
        <ele>355</ele>
        <time>2026-02-03T12:17:18.000Z</time>
      </trkpt>
      <trkpt lat="44.86763" lon="5.05098">
        <ele>353</ele>
        <time>2026-02-03T12:17:52.000Z</time>
      </trkpt>
      <trkpt lat="44.86739" lon="5.05095">
        <ele>351</ele>
        <time>2026-02-03T12:18:16.000Z</time>
      </trkpt>
      <trkpt lat="44.86718" lon="5.0508">
        <ele>350</ele>
        <time>2026-02-03T12:18:40.000Z</time>
      </trkpt>
      <trkpt lat="44.86695" lon="5.05066">
        <ele>349</ele>
        <time>2026-02-03T12:18:59.000Z</time>
      </trkpt>
      <trkpt lat="44.86673" lon="5.05051">
        <ele>347</ele>
        <time>2026-02-03T12:19:24.000Z</time>
      </trkpt>
      <trkpt lat="44.86652" lon="5.0504">
        <ele>346</ele>
        <time>2026-02-03T12:19:40.000Z</time>
      </trkpt>
      <trkpt lat="44.86631" lon="5.05029">
        <ele>345</ele>
        <time>2026-02-03T12:20:00.000Z</time>
      </trkpt>
      <trkpt lat="44.8661" lon="5.05018">
        <ele>343</ele>
        <time>2026-02-03T12:20:15.000Z</time>
      </trkpt>
      <trkpt lat="44.86588" lon="5.05009">
        <ele>343</ele>
        <time>2026-02-03T12:20:31.000Z</time>
      </trkpt>
      <trkpt lat="44.86565" lon="5.05003">
        <ele>343</ele>
        <time>2026-02-03T12:20:49.000Z</time>
      </trkpt>
      <trkpt lat="44.86542" lon="5.04995">
        <ele>343</ele>
        <time>2026-02-03T12:21:07.000Z</time>
      </trkpt>
      <trkpt lat="44.86519" lon="5.04988">
        <ele>343</ele>
        <time>2026-02-03T12:21:24.000Z</time>
      </trkpt>
      <trkpt lat="44.86498" lon="5.04979">
        <ele>344</ele>
        <time>2026-02-03T12:21:40.000Z</time>
      </trkpt>
      <trkpt lat="44.86477" lon="5.04979">
        <ele>345</ele>
        <time>2026-02-03T12:21:59.000Z</time>
      </trkpt>
      <trkpt lat="44.86468" lon="5.05005">
        <ele>346</ele>
        <time>2026-02-03T12:22:16.000Z</time>
      </trkpt>
      <trkpt lat="44.86456" lon="5.05033">
        <ele>347</ele>
        <time>2026-02-03T12:22:34.000Z</time>
      </trkpt>
      <trkpt lat="44.86447" lon="5.05065">
        <ele>348</ele>
        <time>2026-02-03T12:22:55.000Z</time>
      </trkpt>
      <trkpt lat="44.8644" lon="5.05097">
        <ele>348</ele>
        <time>2026-02-03T12:23:14.000Z</time>
      </trkpt>
      <trkpt lat="44.86436" lon="5.05129">
        <ele>351</ele>
        <time>2026-02-03T12:23:36.000Z</time>
      </trkpt>
      <trkpt lat="44.86429" lon="5.05158">
        <ele>354</ele>
        <time>2026-02-03T12:23:56.000Z</time>
      </trkpt>
      <trkpt lat="44.86423" lon="5.05189">
        <ele>358</ele>
        <time>2026-02-03T12:24:17.000Z</time>
      </trkpt>
      <trkpt lat="44.8642" lon="5.05222">
        <ele>362</ele>
        <time>2026-02-03T12:24:41.000Z</time>
      </trkpt>
      <trkpt lat="44.86421" lon="5.05254">
        <ele>366</ele>
        <time>2026-02-03T12:25:07.000Z</time>
      </trkpt>
      <trkpt lat="44.86425" lon="5.05285">
        <ele>369</ele>
        <time>2026-02-03T12:25:35.000Z</time>
      </trkpt>
      <trkpt lat="44.8643" lon="5.05315">
        <ele>373</ele>
        <time>2026-02-03T12:26:02.000Z</time>
      </trkpt>
      <trkpt lat="44.86435" lon="5.05346">
        <ele>376</ele>
        <time>2026-02-03T12:26:31.000Z</time>
      </trkpt>
      <trkpt lat="44.86447" lon="5.05373">
        <ele>379</ele>
        <time>2026-02-03T12:30:11.000Z</time>
      </trkpt>
      <trkpt lat="44.8646" lon="5.05399">
        <ele>381</ele>
        <time>2026-02-03T12:30:32.000Z</time>
      </trkpt>
      <trkpt lat="44.86469" lon="5.05425">
        <ele>384</ele>
        <time>2026-02-03T12:30:56.000Z</time>
      </trkpt>
      <trkpt lat="44.86455" lon="5.05445">
        <ele>386</ele>
        <time>2026-02-03T12:31:22.000Z</time>
      </trkpt>
      <trkpt lat="44.86447" lon="5.05474">
        <ele>387</ele>
        <time>2026-02-03T12:31:41.000Z</time>
      </trkpt>
      <trkpt lat="44.8645" lon="5.05505">
        <ele>388</ele>
        <time>2026-02-03T12:32:02.000Z</time>
      </trkpt>
      <trkpt lat="44.86448" lon="5.05536">
        <ele>390</ele>
        <time>2026-02-03T12:32:22.000Z</time>
      </trkpt>
      <trkpt lat="44.86447" lon="5.05567">
        <ele>393</ele>
        <time>2026-02-03T12:32:42.000Z</time>
      </trkpt>
      <trkpt lat="44.86452" lon="5.05597">
        <ele>396</ele>
        <time>2026-02-03T12:34:08.000Z</time>
      </trkpt>
      <trkpt lat="44.8645" lon="5.05629">
        <ele>401</ele>
        <time>2026-02-03T12:34:36.000Z</time>
      </trkpt>
      <trkpt lat="44.86446" lon="5.0566">
        <ele>404</ele>
        <time>2026-02-03T12:35:03.000Z</time>
      </trkpt>
      <trkpt lat="44.86442" lon="5.05691">
        <ele>407</ele>
        <time>2026-02-03T12:35:29.000Z</time>
      </trkpt>
      <trkpt lat="44.86434" lon="5.05722">
        <ele>410</ele>
        <time>2026-02-03T12:36:01.000Z</time>
      </trkpt>
      <trkpt lat="44.86421" lon="5.0575">
        <ele>412</ele>
        <time>2026-02-03T12:36:28.000Z</time>
      </trkpt>
      <trkpt lat="44.86411" lon="5.0578">
        <ele>414</ele>
        <time>2026-02-03T12:37:06.000Z</time>
      </trkpt>
      <trkpt lat="44.86405" lon="5.05814">
        <ele>416</ele>
        <time>2026-02-03T12:40:18.000Z</time>
      </trkpt>
      <trkpt lat="44.86398" lon="5.05846">
        <ele>419</ele>
        <time>2026-02-03T12:40:38.000Z</time>
      </trkpt>
      <trkpt lat="44.86386" lon="5.05875">
        <ele>423</ele>
        <time>2026-02-03T12:41:02.000Z</time>
      </trkpt>
      <trkpt lat="44.86373" lon="5.05902">
        <ele>426</ele>
        <time>2026-02-03T12:41:27.000Z</time>
      </trkpt>
      <trkpt lat="44.86366" lon="5.05932">
        <ele>430</ele>
        <time>2026-02-03T12:41:52.000Z</time>
      </trkpt>
      <trkpt lat="44.86355" lon="5.0596">
        <ele>434</ele>
        <time>2026-02-03T12:42:16.000Z</time>
      </trkpt>
      <trkpt lat="44.86349" lon="5.05991">
        <ele>437</ele>
        <time>2026-02-03T12:42:45.000Z</time>
      </trkpt>
      <trkpt lat="44.86334" lon="5.06013">
        <ele>440</ele>
        <time>2026-02-03T12:43:12.000Z</time>
      </trkpt>
      <trkpt lat="44.86314" lon="5.06027">
        <ele>444</ele>
        <time>2026-02-03T12:46:11.000Z</time>
      </trkpt>
      <trkpt lat="44.86292" lon="5.06028">
        <ele>449</ele>
        <time>2026-02-03T12:46:29.000Z</time>
      </trkpt>
      <trkpt lat="44.86271" lon="5.06039">
        <ele>452</ele>
        <time>2026-02-03T12:46:55.000Z</time>
      </trkpt>
      <trkpt lat="44.86251" lon="5.06048">
        <ele>456</ele>
        <time>2026-02-03T12:47:21.000Z</time>
      </trkpt>
      <trkpt lat="44.86246" lon="5.06076">
        <ele>459</ele>
        <time>2026-02-03T12:49:16.000Z</time>
      </trkpt>
      <trkpt lat="44.86246" lon="5.06108">
        <ele>462</ele>
        <time>2026-02-03T12:49:54.000Z</time>
      </trkpt>
      <trkpt lat="44.86246" lon="5.06139">
        <ele>465</ele>
        <time>2026-02-03T12:50:22.000Z</time>
      </trkpt>
      <trkpt lat="44.86243" lon="5.06171">
        <ele>468</ele>
        <time>2026-02-03T12:50:48.000Z</time>
      </trkpt>
      <trkpt lat="44.86234" lon="5.06201">
        <ele>470</ele>
        <time>2026-02-03T12:51:10.000Z</time>
      </trkpt>
      <trkpt lat="44.8623" lon="5.06232">
        <ele>473</ele>
        <time>2026-02-03T12:51:32.000Z</time>
      </trkpt>
      <trkpt lat="44.8623" lon="5.06264">
        <ele>475</ele>
        <time>2026-02-03T12:51:54.000Z</time>
      </trkpt>
      <trkpt lat="44.86228" lon="5.06297">
        <ele>478</ele>
        <time>2026-02-03T12:52:17.000Z</time>
      </trkpt>
      <trkpt lat="44.86225" lon="5.06329">
        <ele>480</ele>
        <time>2026-02-03T12:52:39.000Z</time>
      </trkpt>
      <trkpt lat="44.86215" lon="5.06356">
        <ele>482</ele>
        <time>2026-02-03T12:55:25.000Z</time>
      </trkpt>
      <trkpt lat="44.86198" lon="5.06376">
        <ele>484</ele>
        <time>2026-02-03T12:55:45.000Z</time>
      </trkpt>
      <trkpt lat="44.86178" lon="5.06391">
        <ele>485</ele>
        <time>2026-02-03T12:56:10.000Z</time>
      </trkpt>
      <trkpt lat="44.86163" lon="5.06404">
        <ele>487</ele>
        <time>2026-02-03T12:56:42.000Z</time>
      </trkpt>
      <trkpt lat="44.86181" lon="5.06415">
        <ele>489</ele>
        <time>2026-02-03T12:58:44.000Z</time>
      </trkpt>
      <trkpt lat="44.86203" lon="5.06421">
        <ele>491</ele>
        <time>2026-02-03T12:59:05.000Z</time>
      </trkpt>
      <trkpt lat="44.86224" lon="5.06432">
        <ele>494</ele>
        <time>2026-02-03T12:59:25.000Z</time>
      </trkpt>
      <trkpt lat="44.86243" lon="5.06453">
        <ele>495</ele>
        <time>2026-02-03T12:59:50.000Z</time>
      </trkpt>
      <trkpt lat="44.86261" lon="5.06473">
        <ele>497</ele>
        <time>2026-02-03T13:00:15.000Z</time>
      </trkpt>
      <trkpt lat="44.86277" lon="5.06498">
        <ele>499</ele>
        <time>2026-02-03T13:00:39.000Z</time>
      </trkpt>
      <trkpt lat="44.86296" lon="5.06518">
        <ele>501</ele>
        <time>2026-02-03T13:01:05.000Z</time>
      </trkpt>
      <trkpt lat="44.86314" lon="5.06542">
        <ele>503</ele>
        <time>2026-02-03T13:01:32.000Z</time>
      </trkpt>
      <trkpt lat="44.86329" lon="5.06567">
        <ele>506</ele>
        <time>2026-02-03T13:01:59.000Z</time>
      </trkpt>
      <trkpt lat="44.86348" lon="5.06583">
        <ele>508</ele>
        <time>2026-02-03T13:02:23.000Z</time>
      </trkpt>
      <trkpt lat="44.86367" lon="5.06599">
        <ele>510</ele>
        <time>2026-02-03T13:02:49.000Z</time>
      </trkpt>
      <trkpt lat="44.86379" lon="5.06626">
        <ele>512</ele>
        <time>2026-02-03T13:03:14.000Z</time>
      </trkpt>
      <trkpt lat="44.86386" lon="5.06656">
        <ele>515</ele>
        <time>2026-02-03T13:03:38.000Z</time>
      </trkpt>
      <trkpt lat="44.86393" lon="5.06686">
        <ele>517</ele>
        <time>2026-02-03T13:04:01.000Z</time>
      </trkpt>
      <trkpt lat="44.86399" lon="5.06716">
        <ele>520</ele>
        <time>2026-02-03T13:04:26.000Z</time>
      </trkpt>
      <trkpt lat="44.86407" lon="5.06744">
        <ele>522</ele>
        <time>2026-02-03T13:04:59.000Z</time>
      </trkpt>
      <trkpt lat="44.86427" lon="5.06755">
        <ele>524</ele>
        <time>2026-02-03T13:08:55.000Z</time>
      </trkpt>
      <trkpt lat="44.8645" lon="5.06752">
        <ele>526</ele>
        <time>2026-02-03T13:09:19.000Z</time>
      </trkpt>
      <trkpt lat="44.86473" lon="5.06752">
        <ele>527</ele>
        <time>2026-02-03T13:10:07.000Z</time>
      </trkpt>
      <trkpt lat="44.86496" lon="5.06756">
        <ele>528</ele>
        <time>2026-02-03T13:10:27.000Z</time>
      </trkpt>
      <trkpt lat="44.86519" lon="5.06758">
        <ele>527</ele>
        <time>2026-02-03T13:10:50.000Z</time>
      </trkpt>
      <trkpt lat="44.86542" lon="5.06757">
        <ele>527</ele>
        <time>2026-02-03T13:11:29.000Z</time>
      </trkpt>
      <trkpt lat="44.86565" lon="5.06759">
        <ele>527</ele>
        <time>2026-02-03T13:11:50.000Z</time>
      </trkpt>
      <trkpt lat="44.86587" lon="5.06764">
        <ele>526</ele>
        <time>2026-02-03T13:12:09.000Z</time>
      </trkpt>
      <trkpt lat="44.86608" lon="5.06755">
        <ele>526</ele>
        <time>2026-02-03T13:12:35.000Z</time>
      </trkpt>
      <trkpt lat="44.86629" lon="5.06743">
        <ele>525</ele>
        <time>2026-02-03T13:12:54.000Z</time>
      </trkpt>
      <trkpt lat="44.86651" lon="5.06734">
        <ele>525</ele>
        <time>2026-02-03T13:13:39.000Z</time>
      </trkpt>
      <trkpt lat="44.86673" lon="5.06722">
        <ele>526</ele>
        <time>2026-02-03T13:14:01.000Z</time>
      </trkpt>
      <trkpt lat="44.86698" lon="5.06717">
        <ele>527</ele>
        <time>2026-02-03T13:14:31.000Z</time>
      </trkpt>
      <trkpt lat="44.86721" lon="5.06712">
        <ele>528</ele>
        <time>2026-02-03T13:15:00.000Z</time>
      </trkpt>
      <trkpt lat="44.86744" lon="5.06712">
        <ele>529</ele>
        <time>2026-02-03T13:15:26.000Z</time>
      </trkpt>
      <trkpt lat="44.86768" lon="5.06716">
        <ele>529</ele>
        <time>2026-02-03T13:15:48.000Z</time>
      </trkpt>
      <trkpt lat="44.86791" lon="5.0672">
        <ele>529</ele>
        <time>2026-02-03T13:16:09.000Z</time>
      </trkpt>
      <trkpt lat="44.86815" lon="5.06723">
        <ele>529</ele>
        <time>2026-02-03T13:16:34.000Z</time>
      </trkpt>
      <trkpt lat="44.86839" lon="5.06725">
        <ele>528</ele>
        <time>2026-02-03T13:16:54.000Z</time>
      </trkpt>
      <trkpt lat="44.86863" lon="5.06727">
        <ele>528</ele>
        <time>2026-02-03T13:17:12.000Z</time>
      </trkpt>
      <trkpt lat="44.86886" lon="5.06731">
        <ele>528</ele>
        <time>2026-02-03T13:17:33.000Z</time>
      </trkpt>
      <trkpt lat="44.86907" lon="5.06744">
        <ele>527</ele>
        <time>2026-02-03T13:17:54.000Z</time>
      </trkpt>
      <trkpt lat="44.86929" lon="5.06756">
        <ele>525</ele>
        <time>2026-02-03T13:18:13.000Z</time>
      </trkpt>
      <trkpt lat="44.86951" lon="5.0677">
        <ele>524</ele>
        <time>2026-02-03T13:18:32.000Z</time>
      </trkpt>
      <trkpt lat="44.86973" lon="5.0678">
        <ele>522</ele>
        <time>2026-02-03T13:18:51.000Z</time>
      </trkpt>
      <trkpt lat="44.86996" lon="5.06791">
        <ele>520</ele>
        <time>2026-02-03T13:19:09.000Z</time>
      </trkpt>
      <trkpt lat="44.87017" lon="5.06803">
        <ele>519</ele>
        <time>2026-02-03T13:19:25.000Z</time>
      </trkpt>
      <trkpt lat="44.87039" lon="5.06818">
        <ele>518</ele>
        <time>2026-02-03T13:21:58.000Z</time>
      </trkpt>
      <trkpt lat="44.87061" lon="5.06828">
        <ele>518</ele>
        <time>2026-02-03T13:22:15.000Z</time>
      </trkpt>
      <trkpt lat="44.87083" lon="5.06842">
        <ele>518</ele>
        <time>2026-02-03T13:22:35.000Z</time>
      </trkpt>
      <trkpt lat="44.87104" lon="5.06854">
        <ele>518</ele>
        <time>2026-02-03T13:22:54.000Z</time>
      </trkpt>
      <trkpt lat="44.87126" lon="5.06864">
        <ele>519</ele>
        <time>2026-02-03T13:23:16.000Z</time>
      </trkpt>
      <trkpt lat="44.87147" lon="5.0688">
        <ele>519</ele>
        <time>2026-02-03T13:23:37.000Z</time>
      </trkpt>
      <trkpt lat="44.87169" lon="5.06891">
        <ele>521</ele>
        <time>2026-02-03T13:23:56.000Z</time>
      </trkpt>
      <trkpt lat="44.87187" lon="5.0691">
        <ele>524</ele>
        <time>2026-02-03T13:24:36.000Z</time>
      </trkpt>
      <trkpt lat="44.87205" lon="5.0693">
        <ele>526</ele>
        <time>2026-02-03T13:25:07.000Z</time>
      </trkpt>
      <trkpt lat="44.87225" lon="5.06946">
        <ele>530</ele>
        <time>2026-02-03T13:25:36.000Z</time>
      </trkpt>
      <trkpt lat="44.87243" lon="5.06964">
        <ele>534</ele>
        <time>2026-02-03T13:26:10.000Z</time>
      </trkpt>
      <trkpt lat="44.87264" lon="5.06978">
        <ele>537</ele>
        <time>2026-02-03T13:26:45.000Z</time>
      </trkpt>
      <trkpt lat="44.87282" lon="5.06996">
        <ele>541</ele>
        <time>2026-02-03T13:27:11.000Z</time>
      </trkpt>
      <trkpt lat="44.87301" lon="5.07012">
        <ele>546</ele>
        <time>2026-02-03T13:27:44.000Z</time>
      </trkpt>
      <trkpt lat="44.8732" lon="5.07029">
        <ele>551</ele>
        <time>2026-02-03T13:28:10.000Z</time>
      </trkpt>
      <trkpt lat="44.87342" lon="5.07034">
        <ele>556</ele>
        <time>2026-02-03T13:28:39.000Z</time>
      </trkpt>
      <trkpt lat="44.87365" lon="5.07037">
        <ele>561</ele>
        <time>2026-02-03T13:29:15.000Z</time>
      </trkpt>
      <trkpt lat="44.87389" lon="5.07037">
        <ele>565</ele>
        <time>2026-02-03T13:30:22.000Z</time>
      </trkpt>
      <trkpt lat="44.87413" lon="5.07036">
        <ele>568</ele>
        <time>2026-02-03T13:30:52.000Z</time>
      </trkpt>
      <trkpt lat="44.87436" lon="5.07034">
        <ele>571</ele>
        <time>2026-02-03T13:31:21.000Z</time>
      </trkpt>
      <trkpt lat="44.8746" lon="5.07033">
        <ele>575</ele>
        <time>2026-02-03T13:31:54.000Z</time>
      </trkpt>
      <trkpt lat="44.87483" lon="5.07035">
        <ele>577</ele>
        <time>2026-02-03T13:32:28.000Z</time>
      </trkpt>
      <trkpt lat="44.87505" lon="5.07038">
        <ele>579</ele>
        <time>2026-02-03T13:37:32.000Z</time>
      </trkpt>
      <trkpt lat="44.87525" lon="5.07053">
        <ele>581</ele>
        <time>2026-02-03T13:37:51.000Z</time>
      </trkpt>
      <trkpt lat="44.87544" lon="5.0707">
        <ele>583</ele>
        <time>2026-02-03T13:38:11.000Z</time>
      </trkpt>
      <trkpt lat="44.87561" lon="5.07091">
        <ele>583</ele>
        <time>2026-02-03T13:38:32.000Z</time>
      </trkpt>
      <trkpt lat="44.87582" lon="5.07104">
        <ele>584</ele>
        <time>2026-02-03T13:38:57.000Z</time>
      </trkpt>
      <trkpt lat="44.87602" lon="5.07119">
        <ele>585</ele>
        <time>2026-02-03T13:41:45.000Z</time>
      </trkpt>
      <trkpt lat="44.87618" lon="5.07131">
        <ele>584</ele>
        <time>2026-02-03T13:42:08.000Z</time>
      </trkpt>
      <trkpt lat="44.87605" lon="5.07115">
        <ele>585</ele>
        <time>2026-02-03T13:45:37.000Z</time>
      </trkpt>
      <trkpt lat="44.87584" lon="5.071">
        <ele>584</ele>
        <time>2026-02-03T13:46:00.000Z</time>
      </trkpt>
      <trkpt lat="44.87562" lon="5.07088">
        <ele>584</ele>
        <time>2026-02-03T13:46:21.000Z</time>
      </trkpt>
      <trkpt lat="44.87543" lon="5.0707">
        <ele>584</ele>
        <time>2026-02-03T13:46:41.000Z</time>
      </trkpt>
      <trkpt lat="44.87523" lon="5.07052">
        <ele>583</ele>
        <time>2026-02-03T13:47:00.000Z</time>
      </trkpt>
      <trkpt lat="44.87503" lon="5.07037">
        <ele>583</ele>
        <time>2026-02-03T13:47:19.000Z</time>
      </trkpt>
      <trkpt lat="44.8748" lon="5.07033">
        <ele>581</ele>
        <time>2026-02-03T13:47:58.000Z</time>
      </trkpt>
      <trkpt lat="44.87457" lon="5.07029">
        <ele>578</ele>
        <time>2026-02-03T13:48:20.000Z</time>
      </trkpt>
      <trkpt lat="44.87433" lon="5.07028">
        <ele>574</ele>
        <time>2026-02-03T13:48:38.000Z</time>
      </trkpt>
      <trkpt lat="44.8741" lon="5.07029">
        <ele>570</ele>
        <time>2026-02-03T13:48:57.000Z</time>
      </trkpt>
      <trkpt lat="44.87387" lon="5.07031">
        <ele>566</ele>
        <time>2026-02-03T13:49:16.000Z</time>
      </trkpt>
      <trkpt lat="44.87364" lon="5.07033">
        <ele>562</ele>
        <time>2026-02-03T13:49:39.000Z</time>
      </trkpt>
      <trkpt lat="44.87341" lon="5.07029">
        <ele>558</ele>
        <time>2026-02-03T13:50:00.000Z</time>
      </trkpt>
      <trkpt lat="44.87319" lon="5.07022">
        <ele>554</ele>
        <time>2026-02-03T13:50:17.000Z</time>
      </trkpt>
      <trkpt lat="44.87298" lon="5.07012">
        <ele>550</ele>
        <time>2026-02-03T13:50:40.000Z</time>
      </trkpt>
      <trkpt lat="44.8728" lon="5.06993">
        <ele>545</ele>
        <time>2026-02-03T13:50:59.000Z</time>
      </trkpt>
      <trkpt lat="44.87259" lon="5.0698">
        <ele>541</ele>
        <time>2026-02-03T13:51:25.000Z</time>
      </trkpt>
      <trkpt lat="44.87242" lon="5.0696">
        <ele>537</ele>
        <time>2026-02-03T13:51:46.000Z</time>
      </trkpt>
      <trkpt lat="44.87223" lon="5.06942">
        <ele>532</ele>
        <time>2026-02-03T13:52:06.000Z</time>
      </trkpt>
      <trkpt lat="44.87204" lon="5.06927">
        <ele>528</ele>
        <time>2026-02-03T13:52:27.000Z</time>
      </trkpt>
      <trkpt lat="44.87186" lon="5.06907">
        <ele>524</ele>
        <time>2026-02-03T13:52:50.000Z</time>
      </trkpt>
      <trkpt lat="44.8717" lon="5.06886">
        <ele>522</ele>
        <time>2026-02-03T13:54:33.000Z</time>
      </trkpt>
      <trkpt lat="44.87149" lon="5.06877">
        <ele>520</ele>
        <time>2026-02-03T13:54:57.000Z</time>
      </trkpt>
      <trkpt lat="44.8713" lon="5.0686">
        <ele>519</ele>
        <time>2026-02-03T13:55:19.000Z</time>
      </trkpt>
      <trkpt lat="44.87107" lon="5.0685">
        <ele>517</ele>
        <time>2026-02-03T13:55:41.000Z</time>
      </trkpt>
      <trkpt lat="44.87086" lon="5.06835">
        <ele>515</ele>
        <time>2026-02-03T13:56:04.000Z</time>
      </trkpt>
      <trkpt lat="44.8707" lon="5.06811">
        <ele>513</ele>
        <time>2026-02-03T13:58:27.000Z</time>
      </trkpt>
      <trkpt lat="44.87057" lon="5.06783">
        <ele>510</ele>
        <time>2026-02-03T13:58:46.000Z</time>
      </trkpt>
      <trkpt lat="44.87044" lon="5.06755">
        <ele>509</ele>
        <time>2026-02-03T13:59:05.000Z</time>
      </trkpt>
      <trkpt lat="44.87036" lon="5.06725">
        <ele>506</ele>
        <time>2026-02-03T13:59:22.000Z</time>
      </trkpt>
      <trkpt lat="44.87032" lon="5.06695">
        <ele>503</ele>
        <time>2026-02-03T13:59:38.000Z</time>
      </trkpt>
      <trkpt lat="44.8704" lon="5.06666">
        <ele>500</ele>
        <time>2026-02-03T14:00:00.000Z</time>
      </trkpt>
      <trkpt lat="44.87057" lon="5.06646">
        <ele>497</ele>
        <time>2026-02-03T14:00:19.000Z</time>
      </trkpt>
      <trkpt lat="44.87075" lon="5.06625">
        <ele>496</ele>
        <time>2026-02-03T14:00:43.000Z</time>
      </trkpt>
      <trkpt lat="44.87091" lon="5.066">
        <ele>495</ele>
        <time>2026-02-03T14:01:01.000Z</time>
      </trkpt>
      <trkpt lat="44.87099" lon="5.06568">
        <ele>493</ele>
        <time>2026-02-03T14:01:25.000Z</time>
      </trkpt>
      <trkpt lat="44.87106" lon="5.06538">
        <ele>491</ele>
        <time>2026-02-03T14:01:42.000Z</time>
      </trkpt>
      <trkpt lat="44.87098" lon="5.06511">
        <ele>488</ele>
        <time>2026-02-03T14:04:31.000Z</time>
      </trkpt>
      <trkpt lat="44.87079" lon="5.06495">
        <ele>485</ele>
        <time>2026-02-03T14:04:49.000Z</time>
      </trkpt>
      <trkpt lat="44.87057" lon="5.06489">
        <ele>481</ele>
        <time>2026-02-03T14:05:09.000Z</time>
      </trkpt>
      <trkpt lat="44.87035" lon="5.06487">
        <ele>476</ele>
        <time>2026-02-03T14:05:28.000Z</time>
      </trkpt>
      <trkpt lat="44.87011" lon="5.06483">
        <ele>472</ele>
        <time>2026-02-03T14:05:55.000Z</time>
      </trkpt>
      <trkpt lat="44.86993" lon="5.06466">
        <ele>469</ele>
        <time>2026-02-03T14:06:25.000Z</time>
      </trkpt>
      <trkpt lat="44.86978" lon="5.06443">
        <ele>464</ele>
        <time>2026-02-03T14:06:43.000Z</time>
      </trkpt>
      <trkpt lat="44.86967" lon="5.06417">
        <ele>460</ele>
        <time>2026-02-03T14:10:10.000Z</time>
      </trkpt>
      <trkpt lat="44.86972" lon="5.06389">
        <ele>456</ele>
        <time>2026-02-03T14:10:43.000Z</time>
      </trkpt>
      <trkpt lat="44.86984" lon="5.06362">
        <ele>451</ele>
        <time>2026-02-03T14:11:01.000Z</time>
      </trkpt>
      <trkpt lat="44.86986" lon="5.0633">
        <ele>449</ele>
        <time>2026-02-03T14:11:17.000Z</time>
      </trkpt>
      <trkpt lat="44.86991" lon="5.06299">
        <ele>448</ele>
        <time>2026-02-03T14:12:07.000Z</time>
      </trkpt>
      <trkpt lat="44.86992" lon="5.06264">
        <ele>447</ele>
        <time>2026-02-03T14:12:23.000Z</time>
      </trkpt>
      <trkpt lat="44.86993" lon="5.06231">
        <ele>446</ele>
        <time>2026-02-03T14:12:43.000Z</time>
      </trkpt>
      <trkpt lat="44.86993" lon="5.06199">
        <ele>444</ele>
        <time>2026-02-03T14:13:08.000Z</time>
      </trkpt>
      <trkpt lat="44.86989" lon="5.06167">
        <ele>442</ele>
        <time>2026-02-03T14:13:29.000Z</time>
      </trkpt>
      <trkpt lat="44.86985" lon="5.06136">
        <ele>440</ele>
        <time>2026-02-03T14:14:00.000Z</time>
      </trkpt>
      <trkpt lat="44.86992" lon="5.06106">
        <ele>436</ele>
        <time>2026-02-03T14:14:45.000Z</time>
      </trkpt>
      <trkpt lat="44.8699" lon="5.06075">
        <ele>433</ele>
        <time>2026-02-03T14:15:04.000Z</time>
      </trkpt>
      <trkpt lat="44.86998" lon="5.06045">
        <ele>431</ele>
        <time>2026-02-03T14:15:24.000Z</time>
      </trkpt>
      <trkpt lat="44.87003" lon="5.06014">
        <ele>429</ele>
        <time>2026-02-03T14:16:18.000Z</time>
      </trkpt>
      <trkpt lat="44.86995" lon="5.05982">
        <ele>428</ele>
        <time>2026-02-03T14:16:57.000Z</time>
      </trkpt>
      <trkpt lat="44.86987" lon="5.0595">
        <ele>427</ele>
        <time>2026-02-03T14:17:18.000Z</time>
      </trkpt>
      <trkpt lat="44.86981" lon="5.05919">
        <ele>427</ele>
        <time>2026-02-03T14:17:37.000Z</time>
      </trkpt>
      <trkpt lat="44.8697" lon="5.05891">
        <ele>426</ele>
        <time>2026-02-03T14:18:30.000Z</time>
      </trkpt>
      <trkpt lat="44.86956" lon="5.05865">
        <ele>425</ele>
        <time>2026-02-03T14:18:50.000Z</time>
      </trkpt>
      <trkpt lat="44.8694" lon="5.05843">
        <ele>424</ele>
        <time>2026-02-03T14:19:11.000Z</time>
      </trkpt>
      <trkpt lat="44.86923" lon="5.05822">
        <ele>422</ele>
        <time>2026-02-03T14:19:28.000Z</time>
      </trkpt>
      <trkpt lat="44.86905" lon="5.05801">
        <ele>420</ele>
        <time>2026-02-03T14:19:46.000Z</time>
      </trkpt>
      <trkpt lat="44.86886" lon="5.05782">
        <ele>418</ele>
        <time>2026-02-03T14:20:03.000Z</time>
      </trkpt>
      <trkpt lat="44.86863" lon="5.05772">
        <ele>417</ele>
        <time>2026-02-03T14:20:22.000Z</time>
      </trkpt>
      <trkpt lat="44.86842" lon="5.0576">
        <ele>415</ele>
        <time>2026-02-03T14:20:35.000Z</time>
      </trkpt>
      <trkpt lat="44.86826" lon="5.05737">
        <ele>413</ele>
        <time>2026-02-03T14:20:55.000Z</time>
      </trkpt>
      <trkpt lat="44.86811" lon="5.05712">
        <ele>411</ele>
        <time>2026-02-03T14:21:13.000Z</time>
      </trkpt>
      <trkpt lat="44.86801" lon="5.05685">
        <ele>410</ele>
        <time>2026-02-03T14:21:32.000Z</time>
      </trkpt>
      <trkpt lat="44.86782" lon="5.0567">
        <ele>408</ele>
        <time>2026-02-03T14:22:36.000Z</time>
      </trkpt>
      <trkpt lat="44.8676" lon="5.05658">
        <ele>406</ele>
        <time>2026-02-03T14:23:03.000Z</time>
      </trkpt>
      <trkpt lat="44.86737" lon="5.05647">
        <ele>405</ele>
        <time>2026-02-03T14:23:31.000Z</time>
      </trkpt>
      <trkpt lat="44.86715" lon="5.05633">
        <ele>404</ele>
        <time>2026-02-03T14:23:54.000Z</time>
      </trkpt>
      <trkpt lat="44.86693" lon="5.05623">
        <ele>403</ele>
        <time>2026-02-03T14:24:19.000Z</time>
      </trkpt>
      <trkpt lat="44.86678" lon="5.05601">
        <ele>401</ele>
        <time>2026-02-03T14:24:39.000Z</time>
      </trkpt>
      <trkpt lat="44.86666" lon="5.05574">
        <ele>398</ele>
        <time>2026-02-03T14:24:57.000Z</time>
      </trkpt>
      <trkpt lat="44.86652" lon="5.05548">
        <ele>395</ele>
        <time>2026-02-03T14:25:19.000Z</time>
      </trkpt>
      <trkpt lat="44.86634" lon="5.05531">
        <ele>392</ele>
        <time>2026-02-03T14:26:38.000Z</time>
      </trkpt>
      <trkpt lat="44.86644" lon="5.05502">
        <ele>390</ele>
        <time>2026-02-03T14:26:57.000Z</time>
      </trkpt>
      <trkpt lat="44.86665" lon="5.05487">
        <ele>387</ele>
        <time>2026-02-03T14:27:16.000Z</time>
      </trkpt>
      <trkpt lat="44.86689" lon="5.05485">
        <ele>384</ele>
        <time>2026-02-03T14:27:46.000Z</time>
      </trkpt>
      <trkpt lat="44.86695" lon="5.05452">
        <ele>383</ele>
        <time>2026-02-03T14:28:03.000Z</time>
      </trkpt>
      <trkpt lat="44.86701" lon="5.05421">
        <ele>382</ele>
        <time>2026-02-03T14:28:22.000Z</time>
      </trkpt>
      <trkpt lat="44.86704" lon="5.05388">
        <ele>374</ele>
        <time>2026-02-03T14:28:42.000Z</time>
      </trkpt>
      <trkpt lat="44.86709" lon="5.05357">
        <ele>369</ele>
        <time>2026-02-03T14:29:04.000Z</time>
      </trkpt>
    </trkseg>
  </trk>
</gpx>